Time;durP1;ratioP1;P1;durP2;ratioP2;P2;SDS_P1;SDS_P2;PMS_P1;PMS_P2;Temp;Humidity;BMP_temperature;BMP_pressure;BME280_temperature;BME280_humidity;BME280_pressure;Samples;Min_cycle;Max_cycle;Signal;HPM_P1;HPM_P2
2023/05/27 00:00:16;;;;;;;16.10;4.95;;;;;;;;;;6214827;23;20001;-85
2023/05/27 00:02:41;;;;;;;8.75;4.25;;;;;;;;;;6213554;23;20079;-85
2023/05/27 00:05:07;;;;;;;9.20;4.35;;;;;;;;;;6218281;23;19997;-85
2023/05/27 00:07:33;;;;;;;11.27;4.70;;;;;;;;;;6220882;23;20062;-85
2023/05/27 00:09:58;;;;;;;8.98;4.53;;;;;;;;;;6229867;23;20001;-84
2023/05/27 00:12:24;;;;;;;9.23;5.03;;;;;;;;;;6244089;23;20023;-85
2023/05/27 00:14:49;;;;;;;11.50;5.13;;;;;;;;;;6244005;23;20085;-85
2023/05/27 00:17:15;;;;;;;10.35;4.53;;;;;;;;;;6193495;23;20000;-84
2023/05/27 00:19:42;;;;;;;13.15;5.13;;;;;;;;;;6244415;23;20016;-84
2023/05/27 00:22:07;;;;;;;7.95;4.88;;;;;;;;;;6219459;23;20001;-85
2023/05/27 00:24:35;;;;;;;14.43;4.95;;;;;;;;;;6242516;23;20011;-85
2023/05/27 00:27:01;;;;;;;9.43;4.35;;;;;;;;;;6241305;23;20005;-85
2023/05/27 00:29:27;;;;;;;12.38;4.82;;;;;;;;;;6235266;23;20000;-85
2023/05/27 00:31:52;;;;;;;8.10;5.07;;;;;;;;;;6215145;23;20005;-85
2023/05/27 00:34:17;;;;;;;11.32;4.88;;;;;;;;;;6214580;23;20431;-84
2023/05/27 00:36:43;;;;;;;9.35;4.75;;;;;;;;;;6213978;23;20004;-84
2023/05/27 00:39:08;;;;;;;10.70;5.25;;;;;;;;;;6215648;23;20005;-83
2023/05/27 00:41:34;;;;;;;12.27;5.20;;;;;;;;;;6213742;23;20004;-83
2023/05/27 00:44:00;;;;;;;7.97;4.47;;;;;;;;;;6214606;23;20000;-82
2023/05/27 00:46:26;;;;;;;13.40;5.38;;;;;;;;;;6215007;23;20007;-83
2023/05/27 00:48:51;;;;;;;9.82;5.03;;;;;;;;;;6189421;23;20096;-84
2023/05/27 00:51:17;;;;;;;12.10;5.13;;;;;;;;;;6214861;23;20063;-84
2023/05/27 00:53:43;;;;;;;9.90;4.80;;;;;;;;;;6214185;23;20063;-84
2023/05/27 00:56:10;;;;;;;8.98;4.75;;;;;;;;;;6216608;23;20005;-85
2023/05/27 00:58:36;;;;;;;13.32;5.05;;;;;;;;;;6216428;23;20031;-85
2023/05/27 01:01:02;;;;;;;9.13;5.00;;;;;;;;;;6192783;23;19997;-85
2023/05/27 01:03:32;;;;;;;12.35;5.22;;;;;;;;;;6195899;23;20005;-85
2023/05/27 01:06:04;;;;;;;10.45;5.35;;;;;;;;;;6236992;23;20019;-85
2023/05/27 01:09:05;;;;;;;13.32;5.72;;;;;;;;;;6242606;23;20039;-85
2023/05/27 01:11:34;;;;;;;11.07;4.97;;;;;;;;;;6221994;23;20004;-85
2023/05/27 01:14:00;;;;;;;11.73;5.30;;;;;;;;;;6216227;23;20005;-84
2023/05/27 01:16:26;;;;;;;10.43;5.30;;;;;;;;;;6189860;23;20000;-85
2023/05/27 01:18:52;;;;;;;10.70;5.35;;;;;;;;;;6189034;23;20005;-84
2023/05/27 01:21:18;;;;;;;11.77;5.85;;;;;;;;;;6188938;23;20103;-84
2023/05/27 01:23:44;;;;;;;10.27;5.65;;;;;;;;;;6214192;23;20005;-84
2023/05/27 01:26:10;;;;;;;13.40;5.55;;;;;;;;;;6188692;23;20007;-84
2023/05/27 01:28:35;;;;;;;11.23;5.53;;;;;;;;;;6215078;23;20004;-85
2023/05/27 01:31:50;;;;;;;13.85;5.78;;;;;;;;;;6214054;23;20000;-85
2023/05/27 01:34:24;;;;;;;14.20;5.55;;;;;;;;;;6181792;23;20016;-85
2023/05/27 01:36:53;;;;;;;16.15;6.07;;;;;;;;;;6213490;23;20482;-85
2023/05/27 01:39:19;;;;;;;17.03;6.37;;;;;;;;;;6189588;23;20091;-85
2023/05/27 01:41:44;;;;;;;14.27;6.47;;;;;;;;;;6213990;23;20016;-84
2023/05/27 01:44:10;;;;;;;17.38;6.32;;;;;;;;;;6188754;23;19996;-85
2023/05/27 01:46:35;;;;;;;18.83;6.88;;;;;;;;;;6213759;23;20005;-85
2023/05/27 01:49:01;;;;;;;14.45;6.97;;;;;;;;;;6188392;23;20363;-85
2023/05/27 01:51:26;;;;;;;19.23;6.93;;;;;;;;;;6213401;23;20082;-84
2023/05/27 01:53:52;;;;;;;18.02;7.22;;;;;;;;;;6214734;23;20399;-84
2023/05/27 01:56:17;;;;;;;20.13;7.75;;;;;;;;;;6213605;23;20047;-84
2023/05/27 01:58:42;;;;;;;15.57;7.70;;;;;;;;;;6188613;23;20086;-85
2023/05/27 02:01:08;;;;;;;20.33;8.43;;;;;;;;;;6214891;23;20428;-85
2023/05/27 02:03:33;;;;;;;19.67;7.22;;;;;;;;;;6214846;23;20429;-85
2023/05/27 02:05:59;;;;;;;21.45;8.18;;;;;;;;;;6213245;23;20012;-84
2023/05/27 02:08:24;;;;;;;21.33;8.27;;;;;;;;;;6187804;23;20031;-84
2023/05/27 02:10:50;;;;;;;20.02;8.18;;;;;;;;;;6214641;23;20004;-84
2023/05/27 02:13:15;;;;;;;18.40;8.27;;;;;;;;;;6213070;23;19997;-84
2023/05/27 02:15:41;;;;;;;22.33;8.05;;;;;;;;;;6214564;23;20008;-84
2023/05/27 02:18:07;;;;;;;27.92;8.15;;;;;;;;;;6163588;23;20020;-83
2023/05/27 02:20:32;;;;;;;26.70;9.07;;;;;;;;;;6214625;23;19997;-83
2023/05/27 02:22:57;;;;;;;22.00;9.05;;;;;;;;;;6215023;23;20016;-83
2023/05/27 02:25:24;;;;;;;21.02;9.00;;;;;;;;;;6213407;23;20001;-84
2023/05/27 02:27:52;;;;;;;25.67;9.18;;;;;;;;;;6214293;23;20095;-84
2023/05/27 02:30:17;;;;;;;26.42;8.98;;;;;;;;;;6188281;23;20004;-84
2023/05/27 02:32:43;;;;;;;20.98;8.30;;;;;;;;;;6213192;23;20433;-84
2023/05/27 02:35:10;;;;;;;17.55;8.60;;;;;;;;;;6212508;23;20008;-84
2023/05/27 02:37:35;;;;;;;23.90;9.60;;;;;;;;;;6214514;23;20008;-84
2023/05/27 02:40:01;;;;;;;25.25;10.38;;;;;;;;;;6214192;23;20394;-84
2023/05/27 02:42:29;;;;;;;32.47;9.70;;;;;;;;;;6214159;23;20322;-83
2023/05/27 02:44:55;;;;;;;31.20;10.60;;;;;;;;;;6214344;23;20005;-84
2023/05/27 02:47:20;;;;;;;25.40;10.23;;;;;;;;;;6212548;23;20000;-84
2023/05/27 02:49:48;;;;;;;25.95;9.77;;;;;;;;;;6212711;23;20079;-86
2023/05/27 02:52:13;;;;;;;24.55;10.20;;;;;;;;;;6212297;23;20005;-85
2023/05/27 02:54:39;;;;;;;21.63;10.00;;;;;;;;;;6188002;23;20083;-86
2023/05/27 02:57:04;;;;;;;25.20;9.07;;;;;;;;;;6187826;23;20032;-86
2023/05/27 02:59:30;;;;;;;24.30;8.50;;;;;;;;;;6214170;23;20628;-86
2023/05/27 03:01:55;;;;;;;28.02;10.63;;;;;;;;;;6187676;23;20336;-85
2023/05/27 03:04:21;;;;;;;24.38;10.48;;;;;;;;;;6187236;23;20039;-85
2023/05/27 03:06:47;;;;;;;27.88;10.40;;;;;;;;;;6214239;23;20010;-84
2023/05/27 03:09:14;;;;;;;31.73;10.82;;;;;;;;;;6213102;23;20025;-86
2023/05/27 03:11:40;;;;;;;24.23;9.95;;;;;;;;;;6213997;23;20519;-86
2023/05/27 03:14:05;;;;;;;31.42;10.43;;;;;;;;;;6212467;23;20313;-85
2023/05/27 03:16:31;;;;;;;21.30;10.48;;;;;;;;;;6213726;23;20063;-84
2023/05/27 03:18:56;;;;;;;29.30;11.13;;;;;;;;;;6214230;23;20012;-85
2023/05/27 03:21:22;;;;;;;21.75;9.85;;;;;;;;;;6213906;23;20003;-85
2023/05/27 03:23:47;;;;;;;21.95;10.60;;;;;;;;;;6214253;23;20020;-84
2023/05/27 03:26:13;;;;;;;25.85;10.57;;;;;;;;;;6212712;23;20000;-85
2023/05/27 03:28:38;;;;;;;21.35;10.68;;;;;;;;;;6214087;23;20027;-85
2023/05/27 03:31:04;;;;;;;23.33;10.50;;;;;;;;;;6214263;23;20005;-84
2023/05/27 03:33:29;;;;;;;22.23;9.43;;;;;;;;;;6213509;23;20504;-84
2023/05/27 03:35:55;;;;;;;26.77;10.20;;;;;;;;;;6212751;23;20359;-85
2023/05/27 03:38:21;;;;;;;36.53;9.98;;;;;;;;;;6187934;23;20019;-84
2023/05/27 03:40:46;;;;;;;27.42;9.68;;;;;;;;;;6214239;23;20004;-85
2023/05/27 03:43:12;;;;;;;20.25;9.75;;;;;;;;;;6214032;23;19993;-84
2023/05/27 03:45:37;;;;;;;28.88;10.10;;;;;;;;;;6186978;23;20371;-85
2023/05/27 03:48:03;;;;;;;18.67;10.07;;;;;;;;;;6212670;23;20047;-85
2023/05/27 03:50:28;;;;;;;28.55;9.73;;;;;;;;;;6214325;23;20073;-84
2023/05/27 03:52:54;;;;;;;21.67;9.57;;;;;;;;;;6213940;23;20007;-84
2023/05/27 03:55:20;;;;;;;24.67;10.85;;;;;;;;;;6214602;23;20339;-84
2023/05/27 03:57:46;;;;;;;27.13;10.15;;;;;;;;;;6212629;23;20082;-84
2023/05/27 04:00:12;;;;;;;24.38;10.95;;;;;;;;;;6186834;23;20448;-84
2023/05/27 04:02:38;;;;;;;23.27;11.18;;;;;;;;;;6212564;23;20135;-84
2023/05/27 04:05:04;;;;;;;21.63;11.30;;;;;;;;;;6212468;23;20011;-84
2023/05/27 04:07:31;;;;;;;25.00;10.68;;;;;;;;;;6162301;23;20515;-84
2023/05/27 04:09:56;;;;;;;32.25;11.23;;;;;;;;;;6213367;23;20071;-84
2023/05/27 04:12:22;;;;;;;30.08;11.43;;;;;;;;;;6214098;23;20005;-84
2023/05/27 04:14:47;;;;;;;21.55;10.52;;;;;;;;;;6213226;23;20340;-84
2023/05/27 04:17:13;;;;;;;25.17;10.35;;;;;;;;;;6213867;23;20001;-84
2023/05/27 04:19:38;;;;;;;23.08;10.57;;;;;;;;;;6212600;23;20001;-85
2023/05/27 04:22:04;;;;;;;19.83;9.98;;;;;;;;;;6214115;23;20059;-83
2023/05/27 04:24:29;;;;;;;19.52;10.00;;;;;;;;;;6213735;23;20019;-85
2023/05/27 04:26:55;;;;;;;20.02;9.80;;;;;;;;;;6214123;23;20391;-84
2023/05/27 04:29:22;;;;;;;20.40;9.68;;;;;;;;;;6213561;23;20013;-86
2023/05/27 04:31:48;;;;;;;22.75;10.00;;;;;;;;;;6163521;23;20024;-85
2023/05/27 04:34:13;;;;;;;20.92;9.82;;;;;;;;;;6212209;23;20395;-85
2023/05/27 04:36:38;;;;;;;18.35;9.57;;;;;;;;;;6213929;23;20012;-84
2023/05/27 04:39:04;;;;;;;24.52;9.55;;;;;;;;;;6213857;23;20004;-85
2023/05/27 04:41:32;;;;;;;25.95;9.50;;;;;;;;;;6213845;23;20383;-85
2023/05/27 04:43:58;;;;;;;28.17;9.60;;;;;;;;;;6211938;23;20000;-85
2023/05/27 04:46:24;;;;;;;17.33;9.30;;;;;;;;;;6186778;23;20008;-84
2023/05/27 04:48:52;;;;;;;16.17;8.90;;;;;;;;;;6213413;23;20012;-84
2023/05/27 04:51:18;;;;;;;18.63;9.43;;;;;;;;;;6215241;23;20394;-85
2023/05/27 04:53:45;;;;;;;21.20;9.25;;;;;;;;;;6214332;23;20087;-85
2023/05/27 04:56:14;;;;;;;16.15;9.43;;;;;;;;;;6215485;23;20004;-84
2023/05/27 04:58:39;;;;;;;17.23;8.95;;;;;;;;;;6213595;23;20075;-84
2023/05/27 05:01:05;;;;;;;17.70;8.68;;;;;;;;;;6215819;23;20459;-84
2023/05/27 05:03:39;;;;;;;23.30;9.43;;;;;;;;;;6216056;23;20083;-85
2023/05/27 05:06:05;;;;;;;18.02;9.32;;;;;;;;;;6215578;23;20004;-84
2023/05/27 05:08:30;;;;;;;15.77;8.88;;;;;;;;;;6218630;23;20015;-84
2023/05/27 05:10:55;;;;;;;15.43;8.85;;;;;;;;;;6222803;23;20012;-84
2023/05/27 05:13:21;;;;;;;16.13;8.80;;;;;;;;;;6222734;23;20000;-85
2023/05/27 05:15:46;;;;;;;19.13;9.32;;;;;;;;;;6224030;23;20001;-86
2023/05/27 05:18:12;;;;;;;18.52;9.02;;;;;;;;;;6222607;23;20024;-85
2023/05/27 05:20:37;;;;;;;17.70;8.77;;;;;;;;;;6188583;23;20115;-85
2023/05/27 05:23:03;;;;;;;19.65;9.10;;;;;;;;;;6214058;23;20028;-85
2023/05/27 05:25:30;;;;;;;22.33;8.50;;;;;;;;;;6213501;23;20080;-85
2023/05/27 05:27:55;;;;;;;16.38;8.75;;;;;;;;;;6215151;23;20087;-87
2023/05/27 05:30:21;;;;;;;22.17;9.15;;;;;;;;;;6188846;23;20067;-85
2023/05/27 05:32:46;;;;;;;19.58;9.32;;;;;;;;;;6213780;23;20005;-84
2023/05/27 05:35:11;;;;;;;15.45;9.13;;;;;;;;;;6213586;23;20001;-85
2023/05/27 05:37:37;;;;;;;18.08;9.50;;;;;;;;;;6214638;23;20016;-83
2023/05/27 05:40:03;;;;;;;20.77;9.25;;;;;;;;;;6213637;23;20344;-84
2023/05/27 05:42:28;;;;;;;18.70;9.32;;;;;;;;;;6214690;23;20004;-85
2023/05/27 05:44:53;;;;;;;16.67;9.10;;;;;;;;;;6215425;23;20055;-86
2023/05/27 05:47:19;;;;;;;17.67;9.55;;;;;;;;;;6215397;23;20009;-85
2023/05/27 05:49:44;;;;;;;18.90;9.38;;;;;;;;;;6191817;23;19996;-85
2023/05/27 05:52:10;;;;;;;16.63;8.52;;;;;;;;;;6220955;23;20005;-86
2023/05/27 05:54:35;;;;;;;18.70;8.00;;;;;;;;;;6214296;23;20400;-85
2023/05/27 05:57:02;;;;;;;14.05;7.32;;;;;;;;;;6213433;23;20004;-85
2023/05/27 05:59:28;;;;;;;16.10;7.72;;;;;;;;;;6213834;23;20079;-84
2023/05/27 06:01:53;;;;;;;13.25;7.43;;;;;;;;;;6213039;23;20005;-86
2023/05/27 06:04:19;;;;;;;16.33;7.28;;;;;;;;;;6215056;23;19992;-86
2023/05/27 06:06:44;;;;;;;17.50;7.03;;;;;;;;;;6214938;23;20008;-87
2023/05/27 06:09:10;;;;;;;12.80;7.60;;;;;;;;;;6214600;23;20015;-86
2023/05/27 06:11:35;;;;;;;14.43;7.65;;;;;;;;;;6212932;23;20012;-86
2023/05/27 06:14:00;;;;;;;14.45;7.03;;;;;;;;;;6213230;23;20001;-85
2023/05/27 06:16:26;;;;;;;13.10;7.30;;;;;;;;;;6213457;23;20001;-85
2023/05/27 06:18:52;;;;;;;12.32;7.05;;;;;;;;;;6214433;23;20428;-85
2023/05/27 06:21:17;;;;;;;11.13;6.75;;;;;;;;;;6215699;23;20011;-85
2023/05/27 06:23:43;;;;;;;15.18;7.13;;;;;;;;;;6215022;23;20031;-85
2023/05/27 06:26:08;;;;;;;13.13;6.55;;;;;;;;;;6216065;23;20005;-84
2023/05/27 06:28:34;;;;;;;14.85;7.70;;;;;;;;;;6215394;23;19997;-85
2023/05/27 06:30:59;;;;;;;10.75;7.22;;;;;;;;;;6218042;23;20117;-87
2023/05/27 06:33:25;;;;;;;9.27;6.20;;;;;;;;;;6209339;23;20004;-85
2023/05/27 06:35:50;;;;;;;11.98;7.18;;;;;;;;;;6239715;23;20451;-85
2023/05/27 06:38:15;;;;;;;15.75;7.28;;;;;;;;;;6230833;23;20072;-85
2023/05/27 06:40:41;;;;;;;10.32;6.65;;;;;;;;;;6214489;23;20015;-86
2023/05/27 06:43:06;;;;;;;13.30;6.78;;;;;;;;;;6214657;23;20003;-86
2023/05/27 06:45:32;;;;;;;10.52;7.35;;;;;;;;;;6213059;23;20015;-86
2023/05/27 06:47:58;;;;;;;11.30;6.85;;;;;;;;;;6188367;23;20011;-88
2023/05/27 06:50:23;;;;;;;12.57;6.47;;;;;;;;;;6212482;23;20027;-87
2023/05/27 06:52:49;;;;;;;13.07;6.38;;;;;;;;;;6213096;23;20009;-84
2023/05/27 06:55:14;;;;;;;13.52;6.30;;;;;;;;;;6214572;23;20005;-86
2023/05/27 06:57:40;;;;;;;7.57;5.90;;;;;;;;;;6212953;23;20102;-86
2023/05/27 07:00:06;;;;;;;13.55;6.45;;;;;;;;;;6214383;23;20031;-85
2023/05/27 07:02:31;;;;;;;9.98;6.70;;;;;;;;;;6214368;23;20005;-85
2023/05/27 07:04:57;;;;;;;11.45;6.57;;;;;;;;;;6212570;23;20004;-86
2023/05/27 07:07:22;;;;;;;8.23;5.80;;;;;;;;;;6163087;23;20009;-85
2023/05/27 07:09:47;;;;;;;9.00;6.47;;;;;;;;;;6213274;23;20344;-86
2023/05/27 07:12:13;;;;;;;8.23;5.72;;;;;;;;;;6214330;23;20005;-86
2023/05/27 07:14:38;;;;;;;9.38;5.32;;;;;;;;;;6213925;23;20007;-85
2023/05/27 07:17:04;;;;;;;9.23;5.85;;;;;;;;;;6214231;23;20009;-85
2023/05/27 07:19:30;;;;;;;9.63;6.70;;;;;;;;;;6214760;23;20016;-85
2023/05/27 07:21:55;;;;;;;13.13;9.32;;;;;;;;;;6212813;23;20024;-87
2023/05/27 07:24:21;;;;;;;8.38;6.32;;;;;;;;;;6214115;23;20000;-86
2023/05/27 07:26:46;;;;;;;11.95;5.80;;;;;;;;;;6214185;23;20001;-87
2023/05/27 07:29:12;;;;;;;10.15;6.38;;;;;;;;;;6213763;23;20005;-87
2023/05/27 07:31:37;;;;;;;10.73;6.20;;;;;;;;;;6214468;23;20095;-87
2023/05/27 07:34:03;;;;;;;8.75;5.78;;;;;;;;;;6214143;23;19997;-86
2023/05/27 07:36:28;;;;;;;11.50;5.95;;;;;;;;;;6214306;23;20029;-86
2023/05/27 07:38:54;;;;;;;11.10;6.50;;;;;;;;;;6212491;23;20000;-85
2023/05/27 07:41:20;;;;;;;11.80;6.60;;;;;;;;;;6213799;23;20361;-87
2023/05/27 07:43:46;;;;;;;10.10;6.45;;;;;;;;;;6213894;23;20001;-87
2023/05/27 07:46:11;;;;;;;13.20;6.53;;;;;;;;;;6212717;23;20016;-86
2023/05/27 07:48:37;;;;;;;9.18;6.20;;;;;;;;;;6212813;23;20004;-87
2023/05/27 07:51:02;;;;;;;7.97;6.00;;;;;;;;;;6214095;23;20399;-87
2023/05/27 07:53:28;;;;;;;7.65;5.95;;;;;;;;;;6214144;23;20076;-86
2023/05/27 07:55:53;;;;;;;7.68;6.35;;;;;;;;;;6214510;23;20134;-88
2023/05/27 07:58:18;;;;;;;12.23;8.80;;;;;;;;;;6212141;23;20005;-84
2023/05/27 08:00:44;;;;;;;8.00;6.13;;;;;;;;;;6211846;23;20019;-86
2023/05/27 08:03:09;;;;;;;10.68;6.07;;;;;;;;;;6210528;23;20000;-85
2023/05/27 08:05:35;;;;;;;11.50;6.65;;;;;;;;;;6212274;23;20395;-86
2023/05/27 08:08:00;;;;;;;14.90;5.32;;;;;;;;;;6213406;23;20082;-85
2023/05/27 08:10:26;;;;;;;7.75;5.80;;;;;;;;;;6213641;23;20052;-86
2023/05/27 08:12:51;;;;;;;12.32;6.53;;;;;;;;;;6212008;23;20055;-86
2023/05/27 08:15:17;;;;;;;10.60;5.97;;;;;;;;;;6213835;23;20004;-87
2023/05/27 08:17:43;;;;;;;8.80;6.65;;;;;;;;;;6212574;23;20375;-86
2023/05/27 08:20:12;;;;;;;16.70;10.13;;;;;;;;;;6214016;23;20004;-86
2023/05/27 08:22:37;;;;;;;11.40;6.83;;;;;;;;;;6213519;23;19997;-87
2023/05/27 08:25:03;;;;;;;8.90;6.07;;;;;;;;;;6211613;23;20007;-86
2023/05/27 08:27:52;;;;;;;13.02;6.78;;;;;;;;;;6163808;23;20040;-85
2023/05/27 08:30:18;;;;;;;8.98;6.20;;;;;;;;;;6189737;23;20031;-86
2023/05/27 08:32:43;;;;;;;9.95;6.18;;;;;;;;;;6213198;23;20420;-87
2023/05/27 08:35:10;;;;;;;11.77;6.72;;;;;;;;;;6213264;23;19996;-86
2023/05/27 08:37:35;;;;;;;10.77;6.63;;;;;;;;;;6212776;23;20089;-86
2023/05/27 08:40:01;;;;;;;12.25;6.40;;;;;;;;;;6215656;23;20001;-86
2023/05/27 08:42:26;;;;;;;13.57;6.53;;;;;;;;;;6215314;23;20004;-86
2023/05/27 08:44:52;;;;;;;12.27;7.57;;;;;;;;;;6214294;23;19997;-88
2023/05/27 08:47:18;;;;;;;9.40;6.78;;;;;;;;;;6215801;23;20005;-87
2023/05/27 08:49:44;;;;;;;11.45;6.53;;;;;;;;;;6214242;23;20013;-87
2023/05/27 08:52:10;;;;;;;11.30;7.00;;;;;;;;;;6214212;23;20428;-87
2023/05/27 08:54:36;;;;;;;12.30;7.18;;;;;;;;;;6214343;23;20000;-86
2023/05/27 08:57:01;;;;;;;13.73;7.53;;;;;;;;;;6187740;23;20067;-87
2023/05/27 08:59:27;;;;;;;9.52;6.25;;;;;;;;;;6214875;23;20420;-87
2023/05/27 09:01:52;;;;;;;10.50;6.32;;;;;;;;;;6189504;23;20005;-86
2023/05/27 09:04:18;;;;;;;9.40;6.50;;;;;;;;;;6216045;23;20424;-86
2023/05/27 09:06:43;;;;;;;8.35;6.07;;;;;;;;;;6215564;23;20032;-86
2023/05/27 09:09:12;;;;;;;13.68;6.95;;;;;;;;;;6216265;23;20024;-86
2023/05/27 09:11:39;;;;;;;8.90;5.82;;;;;;;;;;6216451;23;20015;-86
2023/05/27 09:14:04;;;;;;;10.55;6.65;;;;;;;;;;6216329;23;20003;-85
2023/05/27 09:16:30;;;;;;;10.15;6.55;;;;;;;;;;6217226;23;20000;-85
2023/05/27 09:18:55;;;;;;;10.45;6.13;;;;;;;;;;6219202;23;20004;-87
2023/05/27 09:21:23;;;;;;;9.70;6.10;;;;;;;;;;6219766;23;20004;-87
2023/05/27 09:23:49;;;;;;;8.93;6.40;;;;;;;;;;6218254;23;20008;-85
2023/05/27 09:26:14;;;;;;;7.72;6.22;;;;;;;;;;6242849;23;20000;-85
2023/05/27 09:28:40;;;;;;;7.88;6.28;;;;;;;;;;6243567;23;20004;-85
2023/05/27 09:31:08;;;;;;;8.40;6.85;;;;;;;;;;6242862;23;20049;-85
2023/05/27 09:33:38;;;;;;;8.00;6.20;;;;;;;;;;6217069;23;20020;-86
2023/05/27 09:36:04;;;;;;;11.43;6.80;;;;;;;;;;6217045;23;19988;-87
2023/05/27 09:38:30;;;;;;;10.75;6.70;;;;;;;;;;6240626;23;20467;-85
2023/05/27 09:40:58;;;;;;;8.65;6.13;;;;;;;;;;6240160;23;20001;-87
2023/05/27 09:43:25;;;;;;;13.30;6.50;;;;;;;;;;6194204;23;20009;-87
2023/05/27 09:45:52;;;;;;;10.05;6.25;;;;;;;;;;6212864;23;20028;-86
2023/05/27 09:48:18;;;;;;;9.55;6.50;;;;;;;;;;6211669;23;20008;-87
2023/05/27 09:50:43;;;;;;;9.32;6.28;;;;;;;;;;6212166;23;19997;-86
2023/05/27 09:53:09;;;;;;;10.63;7.10;;;;;;;;;;6213752;23;20058;-86
2023/05/27 09:55:34;;;;;;;8.20;6.20;;;;;;;;;;6213727;23;20008;-87
2023/05/27 09:58:01;;;;;;;8.82;6.60;;;;;;;;;;6214610;23;20028;-86
2023/05/27 10:00:27;;;;;;;13.25;6.18;;;;;;;;;;6213589;23;20422;-85
2023/05/27 10:02:52;;;;;;;8.98;5.90;;;;;;;;;;6213065;23;20075;-85
2023/05/27 10:05:20;;;;;;;8.82;6.07;;;;;;;;;;6212931;23;20432;-87
2023/05/27 10:07:46;;;;;;;7.95;6.00;;;;;;;;;;6214410;23;20012;-88
2023/05/27 10:10:20;;;;;;;6.88;5.20;;;;;;;;;;6214379;23;20001;-85
2023/05/27 10:12:47;;;;;;;7.68;5.70;;;;;;;;;;6189316;23;20013;-86
2023/05/27 10:15:31;;;;;;;6.75;5.60;;;;;;;;;;6216141;23;20001;-87
2023/05/27 10:18:07;;;;;;;7.93;5.95;;;;;;;;;;6215510;23;20000;-87
2023/05/27 10:20:45;;;;;;;11.75;5.95;;;;;;;;;;6215133;23;20005;-85
2023/05/27 10:23:11;;;;;;;6.70;5.13;;;;;;;;;;6165279;23;20044;-87
2023/05/27 10:25:46;;;;;;;8.80;5.13;;;;;;;;;;6215175;23;20402;-85
2023/05/27 10:28:22;;;;;;;7.97;5.47;;;;;;;;;;6214930;23;20004;-87
2023/05/27 10:30:48;;;;;;;8.43;5.05;;;;;;;;;;6190770;23;20001;-87
2023/05/27 10:33:13;;;;;;;7.13;5.05;;;;;;;;;;6214198;23;20040;-85
2023/05/27 10:35:40;;;;;;;8.52;5.25;;;;;;;;;;6214566;23;19996;-84
2023/05/27 10:38:18;;;;;;;7.95;5.43;;;;;;;;;;6214218;23;20023;-88
2023/05/27 10:40:47;;;;;;;6.07;5.47;;;;;;;;;;6216098;23;20451;-85
2023/05/27 10:43:17;;;;;;;7.85;5.85;;;;;;;;;;6214147;23;20007;-87
2023/05/27 10:45:42;;;;;;;7.72;5.60;;;;;;;;;;6215391;23;20055;-87
2023/05/27 10:48:19;;;;;;;12.60;6.25;;;;;;;;;;6214306;23;20005;-87
2023/05/27 10:50:57;;;;;;;8.05;5.80;;;;;;;;;;6214698;23;20005;-86
2023/05/27 10:53:22;;;;;;;10.55;5.88;;;;;;;;;;6214612;23;19992;-86
2023/05/27 10:55:51;;;;;;;11.05;6.13;;;;;;;;;;6214367;23;20004;-86
2023/05/27 10:58:17;;;;;;;11.23;6.70;;;;;;;;;;6213341;23;20327;-85
2023/05/27 11:00:50;;;;;;;10.00;6.57;;;;;;;;;;6216706;23;20008;-87
2023/05/27 11:03:23;;;;;;;12.43;6.65;;;;;;;;;;6219476;23;20008;-86
2023/05/27 11:06:06;;;;;;;10.50;6.57;;;;;;;;;;6219910;23;20066;-87
2023/05/27 11:08:35;;;;;;;10.68;6.40;;;;;;;;;;6234095;23;20012;-86
2023/05/27 11:11:05;;;;;;;7.78;6.13;;;;;;;;;;6240046;23;20031;-84
2023/05/27 11:13:35;;;;;;;8.20;6.35;;;;;;;;;;6237889;23;19997;-83
2023/05/27 11:16:01;;;;;;;11.32;6.88;;;;;;;;;;6219847;23;20095;-85
2023/05/27 11:18:48;;;;;;;10.98;6.13;;;;;;;;;;6216829;23;20399;-86
2023/05/27 11:21:15;;;;;;;8.30;5.60;;;;;;;;;;6215436;23;20005;-85
2023/05/27 11:23:45;;;;;;;8.70;6.35;;;;;;;;;;6213250;23;20461;-85
2023/05/27 11:26:13;;;;;;;8.60;5.90;;;;;;;;;;6189003;23;20060;-86
2023/05/27 11:28:44;;;;;;;8.70;6.10;;;;;;;;;;6213423;23;20083;-86
2023/05/27 11:31:40;;;;;;;7.43;5.82;;;;;;;;;;6190063;23;20016;-85
2023/05/27 11:34:13;;;;;;;7.05;5.68;;;;;;;;;;6215300;23;20000;-85
2023/05/27 11:36:39;;;;;;;8.02;5.93;;;;;;;;;;6212871;23;20012;-86
2023/05/27 11:39:05;;;;;;;9.85;6.60;;;;;;;;;;6212904;23;20655;-87
2023/05/27 11:41:32;;;;;;;8.23;6.40;;;;;;;;;;6214279;23;20083;-87
2023/05/27 11:44:05;;;;;;;8.02;5.95;;;;;;;;;;6215084;23;20007;-85
2023/05/27 11:46:34;;;;;;;9.98;6.38;;;;;;;;;;6212972;23;20015;-86
2023/05/27 11:48:59;;;;;;;11.93;6.85;;;;;;;;;;6188206;23;20063;-86
2023/05/27 11:51:29;;;;;;;11.23;6.60;;;;;;;;;;6216857;23;20008;-85
2023/05/27 11:53:54;;;;;;;8.48;6.38;;;;;;;;;;6213068;23;20005;-85
2023/05/27 11:56:20;;;;;;;9.82;6.28;;;;;;;;;;6190773;23;20118;-86
2023/05/27 11:58:45;;;;;;;11.80;6.38;;;;;;;;;;6217304;23;20098;-84
2023/05/27 12:03:46;;;;;;;12.57;6.93;;;;;;;;;;6216386;23;20062;-78
2023/05/27 12:06:11;;;;;;;9.43;6.30;;;;;;;;;;6215756;23;20004;-80
2023/05/27 12:08:38;;;;;;;13.13;6.32;;;;;;;;;;6189399;23;20010;-80
2023/05/27 12:11:04;;;;;;;10.20;6.43;;;;;;;;;;6165137;23;20084;-78
2023/05/27 12:13:29;;;;;;;8.32;6.43;;;;;;;;;;6215245;23;20420;-80
2023/05/27 12:15:55;;;;;;;9.15;6.75;;;;;;;;;;6189172;23;20009;-80
2023/05/27 12:18:20;;;;;;;9.80;6.47;;;;;;;;;;6188966;23;20136;-81
2023/05/27 12:20:46;;;;;;;9.70;6.30;;;;;;;;;;6189322;23;20011;-81
2023/05/27 12:23:11;;;;;;;13.57;6.40;;;;;;;;;;6188923;23;20523;-80
2023/05/27 12:25:37;;;;;;;10.25;6.43;;;;;;;;;;6188971;23;20024;-80
2023/05/27 12:28:02;;;;;;;7.60;6.18;;;;;;;;;;6164019;23;20508;-80
2023/05/27 12:30:29;;;;;;;7.72;6.13;;;;;;;;;;6215194;23;20313;-82
2023/05/27 12:32:54;;;;;;;9.40;6.18;;;;;;;;;;6215203;23;19996;-80
2023/05/27 12:35:20;;;;;;;13.25;6.68;;;;;;;;;;6188789;23;20011;-81
2023/05/27 12:37:45;;;;;;;10.40;6.55;;;;;;;;;;6189113;23;20005;-81
2023/05/27 12:40:14;;;;;;;12.40;6.75;;;;;;;;;;6163792;23;20416;-81
2023/05/27 12:42:40;;;;;;;10.65;6.80;;;;;;;;;;6164598;23;20079;-80
2023/05/27 12:45:07;;;;;;;10.38;6.20;;;;;;;;;;6163720;23;20024;-80
2023/05/27 12:47:32;;;;;;;9.95;6.03;;;;;;;;;;6188478;23;20000;-82
2023/05/27 12:49:58;;;;;;;9.60;6.47;;;;;;;;;;6188949;23;20372;-82
2023/05/27 12:52:23;;;;;;;10.20;6.47;;;;;;;;;;6163593;23;20003;-82
2023/05/27 12:54:48;;;;;;;7.95;5.90;;;;;;;;;;6188519;23;20466;-83
2023/05/27 12:57:14;;;;;;;12.65;6.75;;;;;;;;;;6214779;23;20004;-80
2023/05/27 12:59:41;;;;;;;9.50;6.20;;;;;;;;;;6188311;23;20000;-80
2023/05/27 13:02:08;;;;;;;10.18;6.32;;;;;;;;;;6188279;23;20015;-80
2023/05/27 13:04:34;;;;;;;7.40;6.30;;;;;;;;;;6214812;23;20001;-80
2023/05/27 13:06:59;;;;;;;9.43;6.20;;;;;;;;;;6188250;23;20005;-79
2023/05/27 13:09:25;;;;;;;15.00;6.90;;;;;;;;;;6188332;23;20030;-81
2023/05/27 13:11:51;;;;;;;10.98;6.70;;;;;;;;;;6163110;23;20028;-82
2023/05/27 13:14:16;;;;;;;9.43;6.10;;;;;;;;;;6188482;23;20015;-81
2023/05/27 13:16:42;;;;;;;13.65;7.03;;;;;;;;;;6188451;23;20384;-82
2023/05/27 13:19:07;;;;;;;9.30;6.40;;;;;;;;;;6214634;23;20012;-82
2023/05/27 13:21:33;;;;;;;9.45;6.72;;;;;;;;;;6188456;23;20008;-81
2023/05/27 13:23:58;;;;;;;11.27;6.45;;;;;;;;;;6188473;23;20071;-82
2023/05/27 13:26:23;;;;;;;12.00;6.45;;;;;;;;;;6187762;23;20498;-80
2023/05/27 13:28:50;;;;;;;9.07;6.85;;;;;;;;;;6187934;23;20091;-80
2023/05/27 13:31:15;;;;;;;9.82;6.53;;;;;;;;;;6188285;23;20005;-81
2023/05/27 13:33:41;;;;;;;10.80;7.10;;;;;;;;;;6163885;23;20011;-80
2023/05/27 13:36:07;;;;;;;10.10;7.13;;;;;;;;;;6138569;23;20008;-80
2023/05/27 13:38:32;;;;;;;11.63;6.95;;;;;;;;;;6187986;23;20010;-82
2023/05/27 13:40:59;;;;;;;11.55;7.25;;;;;;;;;;6163157;23;20494;-83
2023/05/27 13:43:25;;;;;;;11.50;7.43;;;;;;;;;;6188410;23;20080;-80
2023/05/27 13:45:50;;;;;;;10.73;7.00;;;;;;;;;;6214363;23;20005;-81
2023/05/27 13:48:16;;;;;;;14.13;7.75;;;;;;;;;;6163178;23;20000;-81
2023/05/27 13:50:42;;;;;;;11.60;7.35;;;;;;;;;;6187683;23;20122;-80
2023/05/27 13:53:07;;;;;;;10.05;7.30;;;;;;;;;;6214678;23;20012;-80
2023/05/27 13:55:33;;;;;;;10.88;7.53;;;;;;;;;;6187645;23;20011;-79
2023/05/27 13:57:59;;;;;;;10.70;7.65;;;;;;;;;;6187595;23;20011;-79
2023/05/27 14:00:24;;;;;;;13.57;8.93;;;;;;;;;;6163252;23;20401;-80
2023/05/27 14:02:50;;;;;;;13.52;9.40;;;;;;;;;;6162795;23;20013;-80
2023/05/27 14:05:15;;;;;;;12.52;8.88;;;;;;;;;;6187796;23;20016;-80
2023/05/27 14:07:42;;;;;;;14.70;9.35;;;;;;;;;;6187937;23;20015;-80
2023/05/27 14:10:07;;;;;;;18.13;10.15;;;;;;;;;;6187326;23;20083;-81
2023/05/27 14:12:33;;;;;;;15.95;9.63;;;;;;;;;;6162952;23;20004;-81
2023/05/27 14:14:58;;;;;;;22.40;10.10;;;;;;;;;;6187545;23;20023;-80
2023/05/27 14:17:24;;;;;;;18.48;9.80;;;;;;;;;;6187569;23;20466;-81
2023/05/27 14:19:50;;;;;;;17.77;9.90;;;;;;;;;;6187892;23;19997;-82
2023/05/27 14:22:15;;;;;;;17.58;9.57;;;;;;;;;;6187325;23;20016;-81
2023/05/27 14:24:40;;;;;;;13.30;8.90;;;;;;;;;;6213681;23;20000;-81
2023/05/27 14:27:07;;;;;;;13.23;8.57;;;;;;;;;;6186771;23;20066;-81
2023/05/27 14:29:32;;;;;;;14.82;9.02;;;;;;;;;;6188319;23;20005;-81
2023/05/27 14:31:58;;;;;;;16.05;9.40;;;;;;;;;;6187332;23;20004;-80